sensor_id;sensor_type;location;lat;lon;timestamp;P1;durP1;ratioP1;P2;durP2;ratioP2
80576;SDS011;69937;52.420;10.538;2023-08-17T00:03:12;2.30;;;1.75;;
80576;SDS011;69937;52.420;10.538;2023-08-17T00:08:12;2.38;;;1.40;;
80576;SDS011;69937;52.420;10.538;2023-08-17T00:13:13;4.25;;;1.85;;
80576;SDS011;69937;52.420;10.538;2023-08-17T00:18:14;5.63;;;1.52;;
80576;SDS011;69937;52.420;10.538;2023-08-17T00:23:14;3.05;;;1.38;;
80576;SDS011;69937;52.420;10.538;2023-08-17T00:28:15;4.70;;;1.50;;
80576;SDS011;69937;52.420;10.538;2023-08-17T00:33:16;3.28;;;1.45;;
80576;SDS011;69937;52.420;10.538;2023-08-17T00:38:16;6.53;;;1.58;;
80576;SDS011;69937;52.420;10.538;2023-08-17T00:43:17;3.33;;;1.65;;
80576;SDS011;69937;52.420;10.538;2023-08-17T00:48:17;4.75;;;1.80;;
80576;SDS011;69937;52.420;10.538;2023-08-17T00:53:18;4.78;;;1.52;;
80576;SDS011;69937;52.420;10.538;2023-08-17T00:58:20;4.88;;;2.20;;
80576;SDS011;69937;52.420;10.538;2023-08-17T01:03:22;3.25;;;1.70;;
80576;SDS011;69937;52.420;10.538;2023-08-17T01:08:23;3.20;;;1.27;;
80576;SDS011;69937;52.420;10.538;2023-08-17T01:13:25;3.08;;;1.40;;
80576;SDS011;69937;52.420;10.538;2023-08-17T01:18:35;7.07;;;2.13;;
80576;SDS011;69937;52.420;10.538;2023-08-17T01:23:39;3.47;;;1.55;;
80576;SDS011;69937;52.420;10.538;2023-08-17T01:28:40;4.70;;;1.42;;
80576;SDS011;69937;52.420;10.538;2023-08-17T01:33:43;3.85;;;1.70;;
80576;SDS011;69937;52.420;10.538;2023-08-17T01:38:48;6.25;;;1.58;;
80576;SDS011;69937;52.420;10.538;2023-08-17T01:43:51;5.32;;;1.50;;
80576;SDS011;69937;52.420;10.538;2023-08-17T01:48:53;5.85;;;1.67;;
80576;SDS011;69937;52.420;10.538;2023-08-17T01:53:55;5.50;;;1.52;;
80576;SDS011;69937;52.420;10.538;2023-08-17T01:58:55;4.40;;;2.00;;
80576;SDS011;69937;52.420;10.538;2023-08-17T02:03:56;6.90;;;2.30;;
80576;SDS011;69937;52.420;10.538;2023-08-17T02:08:57;5.60;;;1.70;;
80576;SDS011;69937;52.420;10.538;2023-08-17T02:13:58;5.88;;;2.10;;
80576;SDS011;69937;52.420;10.538;2023-08-17T02:18:59;7.38;;;2.40;;
80576;SDS011;69937;52.420;10.538;2023-08-17T02:23:59;4.85;;;2.03;;
80576;SDS011;69937;52.420;10.538;2023-08-17T02:29:00;5.38;;;2.20;;
80576;SDS011;69937;52.420;10.538;2023-08-17T02:34:00;12.75;;;2.45;;
80576;SDS011;69937;52.420;10.538;2023-08-17T02:39:05;3.33;;;1.67;;
80576;SDS011;69937;52.420;10.538;2023-08-17T02:44:05;4.93;;;1.92;;
80576;SDS011;69937;52.420;10.538;2023-08-17T02:49:06;3.80;;;2.00;;
80576;SDS011;69937;52.420;10.538;2023-08-17T02:54:06;4.90;;;2.25;;
80576;SDS011;69937;52.420;10.538;2023-08-17T02:59:07;3.17;;;2.13;;
80576;SDS011;69937;52.420;10.538;2023-08-17T03:04:07;4.32;;;2.20;;
80576;SDS011;69937;52.420;10.538;2023-08-17T03:09:08;3.67;;;1.92;;
80576;SDS011;69937;52.420;10.538;2023-08-17T03:14:09;3.22;;;1.67;;
80576;SDS011;69937;52.420;10.538;2023-08-17T03:19:10;4.00;;;1.75;;
80576;SDS011;69937;52.420;10.538;2023-08-17T03:24:11;2.53;;;1.73;;
80576;SDS011;69937;52.420;10.538;2023-08-17T03:29:12;4.25;;;1.83;;
80576;SDS011;69937;52.420;10.538;2023-08-17T03:34:12;4.57;;;1.92;;
80576;SDS011;69937;52.420;10.538;2023-08-17T03:39:13;4.93;;;2.10;;
80576;SDS011;69937;52.420;10.538;2023-08-17T03:44:13;3.85;;;2.15;;
80576;SDS011;69937;52.420;10.538;2023-08-17T03:49:15;3.20;;;2.22;;
80576;SDS011;69937;52.420;10.538;2023-08-17T03:54:17;3.15;;;2.15;;
80576;SDS011;69937;52.420;10.538;2023-08-17T03:59:18;5.28;;;2.28;;
80576;SDS011;69937;52.420;10.538;2023-08-17T04:04:19;4.43;;;2.22;;
80576;SDS011;69937;52.420;10.538;2023-08-17T04:09:19;5.22;;;2.47;;
80576;SDS011;69937;52.420;10.538;2023-08-17T04:14:20;2.95;;;2.40;;
80576;SDS011;69937;52.420;10.538;2023-08-17T04:19:21;4.40;;;2.20;;
80576;SDS011;69937;52.420;10.538;2023-08-17T04:24:21;3.80;;;2.28;;
80576;SDS011;69937;52.420;10.538;2023-08-17T04:29:22;6.07;;;2.58;;
80576;SDS011;69937;52.420;10.538;2023-08-17T04:34:23;4.85;;;2.53;;
80576;SDS011;69937;52.420;10.538;2023-08-17T04:39:24;3.58;;;2.13;;
80576;SDS011;69937;52.420;10.538;2023-08-17T04:44:25;3.33;;;2.38;;
80576;SDS011;69937;52.420;10.538;2023-08-17T04:49:25;5.38;;;2.33;;
80576;SDS011;69937;52.420;10.538;2023-08-17T04:54:26;3.28;;;2.08;;
80576;SDS011;69937;52.420;10.538;2023-08-17T04:59:26;4.35;;;2.63;;
80576;SDS011;69937;52.420;10.538;2023-08-17T05:04:27;8.35;;;2.50;;
80576;SDS011;69937;52.420;10.538;2023-08-17T05:09:29;2.90;;;1.92;;
80576;SDS011;69937;52.420;10.538;2023-08-17T05:14:30;6.00;;;2.50;;
80576;SDS011;69937;52.420;10.538;2023-08-17T05:19:31;4.70;;;2.25;;
80576;SDS011;69937;52.420;10.538;2023-08-17T05:24:31;3.60;;;2.20;;
80576;SDS011;69937;52.420;10.538;2023-08-17T05:29:32;3.97;;;2.03;;
80576;SDS011;69937;52.420;10.538;2023-08-17T05:34:32;3.08;;;2.05;;
80576;SDS011;69937;52.420;10.538;2023-08-17T05:39:33;4.32;;;2.15;;
80576;SDS011;69937;52.420;10.538;2023-08-17T05:44:33;4.72;;;2.40;;
80576;SDS011;69937;52.420;10.538;2023-08-17T05:49:34;3.22;;;1.70;;
80576;SDS011;69937;52.420;10.538;2023-08-17T05:54:34;3.50;;;2.40;;
80576;SDS011;69937;52.420;10.538;2023-08-17T05:59:35;6.78;;;2.13;;
80576;SDS011;69937;52.420;10.538;2023-08-17T06:04:35;3.97;;;1.85;;
80576;SDS011;69937;52.420;10.538;2023-08-17T06:09:37;6.88;;;2.28;;
80576;SDS011;69937;52.420;10.538;2023-08-17T06:14:37;3.88;;;1.90;;
80576;SDS011;69937;52.420;10.538;2023-08-17T06:19:38;3.20;;;2.15;;
80576;SDS011;69937;52.420;10.538;2023-08-17T06:24:39;3.30;;;2.00;;
80576;SDS011;69937;52.420;10.538;2023-08-17T06:29:40;4.22;;;2.08;;
80576;SDS011;69937;52.420;10.538;2023-08-17T06:34:40;5.60;;;1.95;;
80576;SDS011;69937;52.420;10.538;2023-08-17T06:39:42;3.17;;;1.73;;
80576;SDS011;69937;52.420;10.538;2023-08-17T06:44:43;3.35;;;1.95;;
80576;SDS011;69937;52.420;10.538;2023-08-17T06:49:43;3.42;;;2.15;;
80576;SDS011;69937;52.420;10.538;2023-08-17T06:54:44;3.20;;;2.00;;
80576;SDS011;69937;52.420;10.538;2023-08-17T06:59:44;2.63;;;1.63;;
80576;SDS011;69937;52.420;10.538;2023-08-17T07:04:46;3.63;;;1.83;;
80576;SDS011;69937;52.420;10.538;2023-08-17T07:09:47;2.28;;;2.00;;
80576;SDS011;69937;52.420;10.538;2023-08-17T07:14:47;2.42;;;1.73;;
80576;SDS011;69937;52.420;10.538;2023-08-17T07:19:48;5.25;;;2.50;;
80576;SDS011;69937;52.420;10.538;2023-08-17T07:24:48;2.92;;;1.95;;
80576;SDS011;69937;52.420;10.538;2023-08-17T07:29:49;3.75;;;2.15;;
80576;SDS011;69937;52.420;10.538;2023-08-17T07:34:49;2.53;;;1.83;;
80576;SDS011;69937;52.420;10.538;2023-08-17T07:39:50;2.75;;;1.90;;
80576;SDS011;69937;52.420;10.538;2023-08-17T07:44:50;4.28;;;2.53;;
80576;SDS011;69937;52.420;10.538;2023-08-17T07:49:51;3.67;;;2.13;;
80576;SDS011;69937;52.420;10.538;2023-08-17T07:54:52;3.00;;;1.90;;
80576;SDS011;69937;52.420;10.538;2023-08-17T07:59:52;2.13;;;1.75;;
80576;SDS011;69937;52.420;10.538;2023-08-17T08:04:53;2.45;;;1.58;;
80576;SDS011;69937;52.420;10.538;2023-08-17T08:09:54;2.05;;;1.48;;
80576;SDS011;69937;52.420;10.538;2023-08-17T08:14:55;3.00;;;1.83;;
80576;SDS011;69937;52.420;10.538;2023-08-17T08:19:55;3.38;;;1.92;;
80576;SDS011;69937;52.420;10.538;2023-08-17T08:24:57;2.47;;;1.60;;
80576;SDS011;69937;52.420;10.538;2023-08-17T08:29:58;3.85;;;2.13;;
80576;SDS011;69937;52.420;10.538;2023-08-17T08:34:58;2.45;;;2.03;;
80576;SDS011;69937;52.420;10.538;2023-08-17T08:39:59;2.30;;;1.73;;
80576;SDS011;69937;52.420;10.538;2023-08-17T08:44:59;3.28;;;1.88;;
80576;SDS011;69937;52.420;10.538;2023-08-17T08:50:01;3.25;;;1.90;;
80576;SDS011;69937;52.420;10.538;2023-08-17T08:55:05;3.90;;;2.25;;
80576;SDS011;69937;52.420;10.538;2023-08-17T09:00:12;3.40;;;2.28;;
80576;SDS011;69937;52.420;10.538;2023-08-17T09:05:13;3.30;;;2.30;;
80576;SDS011;69937;52.420;10.538;2023-08-17T09:10:14;3.30;;;2.03;;
80576;SDS011;69937;52.420;10.538;2023-08-17T09:15:16;3.60;;;1.95;;
80576;SDS011;69937;52.420;10.538;2023-08-17T09:25:47;2.78;;;1.95;;
80576;SDS011;69937;52.420;10.538;2023-08-17T09:35:57;3.40;;;2.50;;
80576;SDS011;69937;52.420;10.538;2023-08-17T09:40:59;5.30;;;2.10;;
80576;SDS011;69937;52.420;10.538;2023-08-17T09:46:00;3.22;;;2.35;;
80576;SDS011;69937;52.420;10.538;2023-08-17T09:51:02;5.57;;;1.83;;
80576;SDS011;69937;52.420;10.538;2023-08-17T09:56:03;7.53;;;2.20;;
80576;SDS011;69937;52.420;10.538;2023-08-17T10:01:07;2.20;;;1.73;;
80576;SDS011;69937;52.420;10.538;2023-08-17T10:06:09;2.90;;;1.98;;
80576;SDS011;69937;52.420;10.538;2023-08-17T10:11:12;6.03;;;2.25;;
80576;SDS011;69937;52.420;10.538;2023-08-17T10:16:36;3.40;;;1.77;;
80576;SDS011;69937;52.420;10.538;2023-08-17T10:27:18;3.33;;;1.80;;
80576;SDS011;69937;52.420;10.538;2023-08-17T10:32:21;3.05;;;1.65;;
80576;SDS011;69937;52.420;10.538;2023-08-17T10:37:23;4.80;;;1.85;;
80576;SDS011;69937;52.420;10.538;2023-08-17T10:42:31;3.00;;;1.52;;
80576;SDS011;69937;52.420;10.538;2023-08-17T10:47:36;5.80;;;2.15;;
80576;SDS011;69937;52.420;10.538;2023-08-17T10:52:36;4.55;;;1.77;;
80576;SDS011;69937;52.420;10.538;2023-08-17T10:57:41;5.40;;;2.88;;
80576;SDS011;69937;52.420;10.538;2023-08-17T11:02:43;3.03;;;1.85;;
80576;SDS011;69937;52.420;10.538;2023-08-17T11:07:44;2.78;;;1.95;;
80576;SDS011;69937;52.420;10.538;2023-08-17T11:12:45;4.03;;;2.20;;
80576;SDS011;69937;52.420;10.538;2023-08-17T11:17:46;3.45;;;1.58;;
80576;SDS011;69937;52.420;10.538;2023-08-17T11:22:46;4.57;;;2.53;;
80576;SDS011;69937;52.420;10.538;2023-08-17T11:27:47;4.57;;;2.15;;
80576;SDS011;69937;52.420;10.538;2023-08-17T11:32:52;5.15;;;2.20;;
80576;SDS011;69937;52.420;10.538;2023-08-17T11:37:53;6.45;;;2.45;;
80576;SDS011;69937;52.420;10.538;2023-08-17T11:42:54;4.28;;;2.20;;
80576;SDS011;69937;52.420;10.538;2023-08-17T11:47:55;3.85;;;1.98;;
80576;SDS011;69937;52.420;10.538;2023-08-17T11:52:58;11.93;;;2.85;;
80576;SDS011;69937;52.420;10.538;2023-08-17T11:58:01;5.88;;;2.58;;
80576;SDS011;69937;52.420;10.538;2023-08-17T12:03:02;4.80;;;3.00;;
80576;SDS011;69937;52.420;10.538;2023-08-17T12:08:04;6.63;;;3.70;;
80576;SDS011;69937;52.420;10.538;2023-08-17T12:13:10;7.15;;;3.20;;
80576;SDS011;69937;52.420;10.538;2023-08-17T12:18:12;6.45;;;3.00;;
80576;SDS011;69937;52.420;10.538;2023-08-17T12:23:16;8.25;;;3.47;;
80576;SDS011;69937;52.420;10.538;2023-08-17T12:28:17;7.70;;;2.97;;
80576;SDS011;69937;52.420;10.538;2023-08-17T12:33:17;8.00;;;3.00;;
80576;SDS011;69937;52.420;10.538;2023-08-17T12:38:18;9.32;;;3.40;;
80576;SDS011;69937;52.420;10.538;2023-08-17T12:43:18;6.35;;;3.35;;
80576;SDS011;69937;52.420;10.538;2023-08-17T12:48:19;5.53;;;2.85;;
80576;SDS011;69937;52.420;10.538;2023-08-17T12:53:19;6.47;;;3.40;;
80576;SDS011;69937;52.420;10.538;2023-08-17T12:58:20;6.85;;;3.05;;
80576;SDS011;69937;52.420;10.538;2023-08-17T13:03:20;6.25;;;2.92;;
80576;SDS011;69937;52.420;10.538;2023-08-17T13:08:21;5.85;;;3.13;;
80576;SDS011;69937;52.420;10.538;2023-08-17T13:13:22;8.73;;;3.35;;
80576;SDS011;69937;52.420;10.538;2023-08-17T13:18:22;5.18;;;2.60;;
80576;SDS011;69937;52.420;10.538;2023-08-17T13:23:23;4.40;;;2.50;;
80576;SDS011;69937;52.420;10.538;2023-08-17T13:28:23;4.28;;;2.28;;
80576;SDS011;69937;52.420;10.538;2023-08-17T13:33:24;5.68;;;2.70;;
80576;SDS011;69937;52.420;10.538;2023-08-17T13:38:24;4.93;;;2.45;;
80576;SDS011;69937;52.420;10.538;2023-08-17T13:43:25;7.07;;;2.40;;
80576;SDS011;69937;52.420;10.538;2023-08-17T13:48:44;6.10;;;2.67;;
80576;SDS011;69937;52.420;10.538;2023-08-17T13:53:45;5.90;;;2.70;;
80576;SDS011;69937;52.420;10.538;2023-08-17T13:58:45;5.25;;;3.05;;
80576;SDS011;69937;52.420;10.538;2023-08-17T14:03:46;4.95;;;3.08;;
80576;SDS011;69937;52.420;10.538;2023-08-17T14:08:46;4.88;;;2.70;;
80576;SDS011;69937;52.420;10.538;2023-08-17T14:13:47;7.53;;;2.88;;
80576;SDS011;69937;52.420;10.538;2023-08-17T14:18:48;8.00;;;3.25;;
80576;SDS011;69937;52.420;10.538;2023-08-17T14:23:48;6.55;;;3.22;;
80576;SDS011;69937;52.420;10.538;2023-08-17T14:28:49;6.68;;;2.83;;
80576;SDS011;69937;52.420;10.538;2023-08-17T14:33:50;7.72;;;3.28;;
80576;SDS011;69937;52.420;10.538;2023-08-17T14:38:50;5.88;;;2.90;;
80576;SDS011;69937;52.420;10.538;2023-08-17T14:43:51;6.65;;;2.83;;
80576;SDS011;69937;52.420;10.538;2023-08-17T14:48:51;9.02;;;2.38;;
80576;SDS011;69937;52.420;10.538;2023-08-17T14:53:52;4.85;;;2.95;;
80576;SDS011;69937;52.420;10.538;2023-08-17T14:58:52;7.22;;;3.60;;
80576;SDS011;69937;52.420;10.538;2023-08-17T15:03:53;6.32;;;2.75;;
80576;SDS011;69937;52.420;10.538;2023-08-17T15:08:53;4.75;;;2.50;;
80576;SDS011;69937;52.420;10.538;2023-08-17T15:13:54;5.40;;;2.63;;
80576;SDS011;69937;52.420;10.538;2023-08-17T15:18:55;7.10;;;2.70;;
80576;SDS011;69937;52.420;10.538;2023-08-17T15:23:55;3.20;;;2.17;;
80576;SDS011;69937;52.420;10.538;2023-08-17T15:28:56;5.13;;;2.45;;
80576;SDS011;69937;52.420;10.538;2023-08-17T15:33:56;6.25;;;2.83;;
80576;SDS011;69937;52.420;10.538;2023-08-17T15:38:57;3.47;;;2.20;;
80576;SDS011;69937;52.420;10.538;2023-08-17T15:43:57;3.40;;;2.13;;
80576;SDS011;69937;52.420;10.538;2023-08-17T15:48:58;3.72;;;2.53;;
80576;SDS011;69937;52.420;10.538;2023-08-17T15:53:58;3.15;;;2.28;;
80576;SDS011;69937;52.420;10.538;2023-08-17T15:58:59;4.00;;;2.03;;
80576;SDS011;69937;52.420;10.538;2023-08-17T16:04:00;3.50;;;2.53;;
80576;SDS011;69937;52.420;10.538;2023-08-17T16:09:00;3.15;;;2.13;;
80576;SDS011;69937;52.420;10.538;2023-08-17T16:14:01;3.03;;;2.72;;
80576;SDS011;69937;52.420;10.538;2023-08-17T16:19:03;3.80;;;2.42;;
80576;SDS011;69937;52.420;10.538;2023-08-17T16:24:03;4.75;;;2.72;;
80576;SDS011;69937;52.420;10.538;2023-08-17T16:29:04;4.15;;;2.15;;
80576;SDS011;69937;52.420;10.538;2023-08-17T16:34:05;4.97;;;2.10;;
80576;SDS011;69937;52.420;10.538;2023-08-17T16:39:05;2.75;;;1.80;;
80576;SDS011;69937;52.420;10.538;2023-08-17T16:44:06;2.42;;;1.85;;
80576;SDS011;69937;52.420;10.538;2023-08-17T16:49:06;3.55;;;2.17;;
80576;SDS011;69937;52.420;10.538;2023-08-17T16:54:07;4.00;;;2.33;;
80576;SDS011;69937;52.420;10.538;2023-08-17T16:59:08;3.97;;;2.00;;
80576;SDS011;69937;52.420;10.538;2023-08-17T17:04:09;4.53;;;2.60;;
80576;SDS011;69937;52.420;10.538;2023-08-17T17:09:09;4.40;;;2.28;;
80576;SDS011;69937;52.420;10.538;2023-08-17T17:14:10;5.22;;;2.75;;
80576;SDS011;69937;52.420;10.538;2023-08-17T17:19:10;4.97;;;2.60;;
80576;SDS011;69937;52.420;10.538;2023-08-17T17:24:11;3.78;;;2.15;;
80576;SDS011;69937;52.420;10.538;2023-08-17T17:29:11;2.75;;;2.03;;
80576;SDS011;69937;52.420;10.538;2023-08-17T17:34:12;3.65;;;2.13;;
80576;SDS011;69937;52.420;10.538;2023-08-17T17:39:13;4.05;;;1.95;;
80576;SDS011;69937;52.420;10.538;2023-08-17T17:44:13;4.07;;;2.47;;
80576;SDS011;69937;52.420;10.538;2023-08-17T17:49:14;4.18;;;2.42;;
80576;SDS011;69937;52.420;10.538;2023-08-17T17:54:15;3.95;;;3.00;;
80576;SDS011;69937;52.420;10.538;2023-08-17T17:59:16;4.07;;;2.42;;
80576;SDS011;69937;52.420;10.538;2023-08-17T18:04:16;4.82;;;2.47;;
80576;SDS011;69937;52.420;10.538;2023-08-17T18:09:17;4.60;;;2.30;;
80576;SDS011;69937;52.420;10.538;2023-08-17T18:14:17;6.35;;;2.90;;
80576;SDS011;69937;52.420;10.538;2023-08-17T18:19:19;4.13;;;3.17;;
80576;SDS011;69937;52.420;10.538;2023-08-17T18:24:19;5.47;;;2.78;;
80576;SDS011;69937;52.420;10.538;2023-08-17T18:29:20;8.63;;;3.55;;
80576;SDS011;69937;52.420;10.538;2023-08-17T18:34:20;4.88;;;2.78;;
80576;SDS011;69937;52.420;10.538;2023-08-17T18:39:21;5.25;;;2.90;;
80576;SDS011;69937;52.420;10.538;2023-08-17T18:44:22;3.25;;;2.83;;
80576;SDS011;69937;52.420;10.538;2023-08-17T18:49:22;4.50;;;3.55;;
80576;SDS011;69937;52.420;10.538;2023-08-17T18:54:23;7.95;;;3.10;;
80576;SDS011;69937;52.420;10.538;2023-08-17T18:59:23;6.97;;;3.28;;
80576;SDS011;69937;52.420;10.538;2023-08-17T19:04:24;4.53;;;3.83;;
80576;SDS011;69937;52.420;10.538;2023-08-17T19:09:24;7.45;;;3.80;;
80576;SDS011;69937;52.420;10.538;2023-08-17T19:14:25;7.60;;;3.45;;
80576;SDS011;69937;52.420;10.538;2023-08-17T19:19:25;6.60;;;3.70;;
80576;SDS011;69937;52.420;10.538;2023-08-17T19:24:26;7.82;;;4.07;;
80576;SDS011;69937;52.420;10.538;2023-08-17T19:29:27;6.97;;;4.00;;
80576;SDS011;69937;52.420;10.538;2023-08-17T19:34:28;8.00;;;4.18;;
80576;SDS011;69937;52.420;10.538;2023-08-17T19:39:29;11.10;;;4.18;;
80576;SDS011;69937;52.420;10.538;2023-08-17T19:44:29;7.15;;;4.45;;
80576;SDS011;69937;52.420;10.538;2023-08-17T19:49:30;8.52;;;4.65;;
80576;SDS011;69937;52.420;10.538;2023-08-17T19:54:30;14.00;;;4.90;;
80576;SDS011;69937;52.420;10.538;2023-08-17T19:59:31;13.80;;;5.70;;
80576;SDS011;69937;52.420;10.538;2023-08-17T20:04:31;9.43;;;4.75;;
80576;SDS011;69937;52.420;10.538;2023-08-17T20:09:32;8.68;;;5.00;;
80576;SDS011;69937;52.420;10.538;2023-08-17T20:14:33;8.15;;;4.75;;
80576;SDS011;69937;52.420;10.538;2023-08-17T20:19:35;9.68;;;4.85;;
80576;SDS011;69937;52.420;10.538;2023-08-17T20:24:36;8.55;;;4.80;;
80576;SDS011;69937;52.420;10.538;2023-08-17T20:29:37;11.30;;;5.15;;
80576;SDS011;69937;52.420;10.538;2023-08-17T20:34:37;8.68;;;5.15;;
80576;SDS011;69937;52.420;10.538;2023-08-17T20:39:38;11.95;;;5.53;;
80576;SDS011;69937;52.420;10.538;2023-08-17T20:44:40;7.47;;;5.07;;
80576;SDS011;69937;52.420;10.538;2023-08-17T20:49:40;7.05;;;5.50;;
80576;SDS011;69937;52.420;10.538;2023-08-17T20:54:42;9.43;;;5.20;;
80576;SDS011;69937;52.420;10.538;2023-08-17T20:59:43;12.38;;;5.15;;
80576;SDS011;69937;52.420;10.538;2023-08-17T21:04:44;13.77;;;5.43;;
80576;SDS011;69937;52.420;10.538;2023-08-17T21:09:44;13.77;;;5.72;;
80576;SDS011;69937;52.420;10.538;2023-08-17T21:14:45;10.00;;;6.57;;
80576;SDS011;69937;52.420;10.538;2023-08-17T21:19:47;9.35;;;6.03;;
80576;SDS011;69937;52.420;10.538;2023-08-17T21:24:47;14.68;;;5.68;;
80576;SDS011;69937;52.420;10.538;2023-08-17T21:29:49;10.63;;;6.22;;
80576;SDS011;69937;52.420;10.538;2023-08-17T21:34:50;13.80;;;6.80;;
80576;SDS011;69937;52.420;10.538;2023-08-17T21:39:50;10.05;;;5.70;;
80576;SDS011;69937;52.420;10.538;2023-08-17T21:44:51;9.75;;;6.15;;
80576;SDS011;69937;52.420;10.538;2023-08-17T21:49:51;12.40;;;5.75;;
80576;SDS011;69937;52.420;10.538;2023-08-17T21:54:52;9.95;;;5.75;;
80576;SDS011;69937;52.420;10.538;2023-08-17T21:59:52;7.45;;;5.22;;
80576;SDS011;69937;52.420;10.538;2023-08-17T22:04:53;10.20;;;5.38;;
80576;SDS011;69937;52.420;10.538;2023-08-17T22:09:54;13.13;;;5.47;;
80576;SDS011;69937;52.420;10.538;2023-08-17T22:14:54;12.98;;;5.25;;
80576;SDS011;69937;52.420;10.538;2023-08-17T22:19:55;12.18;;;5.45;;
80576;SDS011;69937;52.420;10.538;2023-08-17T22:24:55;11.15;;;5.32;;
80576;SDS011;69937;52.420;10.538;2023-08-17T22:29:56;6.45;;;4.75;;
80576;SDS011;69937;52.420;10.538;2023-08-17T22:34:57;11.90;;;4.85;;
80576;SDS011;69937;52.420;10.538;2023-08-17T22:39:57;10.82;;;5.43;;
80576;SDS011;69937;52.420;10.538;2023-08-17T22:44:58;10.38;;;5.40;;
80576;SDS011;69937;52.420;10.538;2023-08-17T22:49:58;8.98;;;5.45;;
80576;SDS011;69937;52.420;10.538;2023-08-17T22:54:59;12.23;;;5.32;;
80576;SDS011;69937;52.420;10.538;2023-08-17T22:59:59;6.93;;;4.40;;
80576;SDS011;69937;52.420;10.538;2023-08-17T23:05:00;21.20;;;5.18;;
80576;SDS011;69937;52.420;10.538;2023-08-17T23:10:01;9.65;;;5.60;;
80576;SDS011;69937;52.420;10.538;2023-08-17T23:15:01;11.73;;;5.82;;
80576;SDS011;69937;52.420;10.538;2023-08-17T23:20:02;10.57;;;6.00;;
80576;SDS011;69937;52.420;10.538;2023-08-17T23:25:03;10.65;;;5.65;;
80576;SDS011;69937;52.420;10.538;2023-08-17T23:30:05;13.73;;;5.82;;
80576;SDS011;69937;52.420;10.538;2023-08-17T23:35:06;9.88;;;5.60;;
80576;SDS011;69937;52.420;10.538;2023-08-17T23:40:07;10.35;;;5.72;;
80576;SDS011;69937;52.420;10.538;2023-08-17T23:45:08;14.88;;;6.47;;
80576;SDS011;69937;52.420;10.538;2023-08-17T23:50:09;12.65;;;6.88;;
80576;SDS011;69937;52.420;10.538;2023-08-17T23:55:09;11.63;;;6.47;;
